Sweetwater, Nevada
Current Conditions -  °F | °C
As of 9:52 PM on Saturday 22 Nov 2014 (Local Time) from KBAN Reporting Station
Clear Clear  
Wind Chill:   Ceiling: Unl
Heat Index:   Visibility: NA
Dew Point: -7°   Wind: 0mph
Humidity: 59%   Direction: NA
Pressure: 30.18"   Gusts: NA
Location:  38.7596°N, 119.34°W
Report Text: KBAN 230552Z AUTO 00000KT CLR 01/M07 A3018 RMK AO2 SLP205 T00061067 10061 20006 53018 FZRANO $
Loading
Personal Weather Stations






























Interactive Weather Map New forecast layout! Learn more

10-Day Weather Forecast

Advertisements
Track Severe Weather on mobile